sensor_id;sensor_type;location;lat;lon;timestamp;temperature;humidity
7684;DHT22;3884;48.616;12.872;2023-07-29T00:01:48;18.10;99.90
7684;DHT22;3884;48.616;12.872;2023-07-29T00:04:15;18.10;99.90
7684;DHT22;3884;48.616;12.872;2023-07-29T00:06:42;18.10;99.90
7684;DHT22;3884;48.616;12.872;2023-07-29T00:09:09;18.10;99.90
7684;DHT22;3884;48.616;12.872;2023-07-29T00:11:35;18.10;99.90
7684;DHT22;3884;48.616;12.872;2023-07-29T00:14:05;18.10;99.90
7684;DHT22;3884;48.616;12.872;2023-07-29T00:16:34;18.10;99.90
7684;DHT22;3884;48.616;12.872;2023-07-29T00:19:01;18.00;99.90
7684;DHT22;3884;48.616;12.872;2023-07-29T00:21:28;18.00;99.90
7684;DHT22;3884;48.616;12.872;2023-07-29T00:23:56;17.90;99.90
7684;DHT22;3884;48.616;12.872;2023-07-29T00:26:24;17.90;99.90
7684;DHT22;3884;48.616;12.872;2023-07-29T00:28:54;17.80;99.90
7684;DHT22;3884;48.616;12.872;2023-07-29T00:31:25;17.80;99.90
7684;DHT22;3884;48.616;12.872;2023-07-29T00:33:54;17.80;99.90
7684;DHT22;3884;48.616;12.872;2023-07-29T00:36:24;17.70;99.90
7684;DHT22;3884;48.616;12.872;2023-07-29T00:38:51;17.70;99.90
7684;DHT22;3884;48.616;12.872;2023-07-29T00:41:19;17.70;99.90
7684;DHT22;3884;48.616;12.872;2023-07-29T00:43:46;17.70;99.90
7684;DHT22;3884;48.616;12.872;2023-07-29T00:46:14;17.70;99.90
7684;DHT22;3884;48.616;12.872;2023-07-29T00:48:42;17.70;99.90
7684;DHT22;3884;48.616;12.872;2023-07-29T00:51:09;17.70;99.90
7684;DHT22;3884;48.616;12.872;2023-07-29T00:53:36;17.70;99.90
7684;DHT22;3884;48.616;12.872;2023-07-29T00:56:03;17.70;99.90
7684;DHT22;3884;48.616;12.872;2023-07-29T00:58:31;17.70;99.90
7684;DHT22;3884;48.616;12.872;2023-07-29T01:00:58;17.60;99.90
7684;DHT22;3884;48.616;12.872;2023-07-29T01:03:25;17.60;99.90
7684;DHT22;3884;48.616;12.872;2023-07-29T01:06:01;17.70;99.90
7684;DHT22;3884;48.616;12.872;2023-07-29T01:08:38;17.70;99.90
7684;DHT22;3884;48.616;12.872;2023-07-29T01:11:18;17.70;99.90
7684;DHT22;3884;48.616;12.872;2023-07-29T01:13:52;17.70;99.90
7684;DHT22;3884;48.616;12.872;2023-07-29T01:16:26;17.70;99.90
7684;DHT22;3884;48.616;12.872;2023-07-29T01:18:55;17.60;99.90
7684;DHT22;3884;48.616;12.872;2023-07-29T01:21:26;17.60;99.90
7684;DHT22;3884;48.616;12.872;2023-07-29T01:23:58;17.70;99.90
7684;DHT22;3884;48.616;12.872;2023-07-29T01:26:25;17.60;99.90
7684;DHT22;3884;48.616;12.872;2023-07-29T01:28:54;17.70;99.90
7684;DHT22;3884;48.616;12.872;2023-07-29T01:31:27;17.60;99.90
7684;DHT22;3884;48.616;12.872;2023-07-29T01:36:42;17.70;99.90
7684;DHT22;3884;48.616;12.872;2023-07-29T01:39:11;17.70;99.90
7684;DHT22;3884;48.616;12.872;2023-07-29T01:41:39;17.70;99.90
7684;DHT22;3884;48.616;12.872;2023-07-29T01:44:07;17.60;99.90
7684;DHT22;3884;48.616;12.872;2023-07-29T01:46:36;17.60;99.90
7684;DHT22;3884;48.616;12.872;2023-07-29T01:49:03;17.70;99.90
7684;DHT22;3884;48.616;12.872;2023-07-29T01:51:31;17.60;99.90
7684;DHT22;3884;48.616;12.872;2023-07-29T01:53:58;17.70;99.90
7684;DHT22;3884;48.616;12.872;2023-07-29T01:56:27;17.70;99.90
7684;DHT22;3884;48.616;12.872;2023-07-29T01:58:55;17.60;99.90
7684;DHT22;3884;48.616;12.872;2023-07-29T02:01:22;17.60;99.90
7684;DHT22;3884;48.616;12.872;2023-07-29T02:03:49;17.60;99.90
7684;DHT22;3884;48.616;12.872;2023-07-29T02:06:20;17.60;99.90
7684;DHT22;3884;48.616;12.872;2023-07-29T02:08:47;17.60;99.90
7684;DHT22;3884;48.616;12.872;2023-07-29T02:11:14;17.60;99.90
7684;DHT22;3884;48.616;12.872;2023-07-29T02:13:43;17.60;99.90
7684;DHT22;3884;48.616;12.872;2023-07-29T02:16:10;17.60;99.90
7684;DHT22;3884;48.616;12.872;2023-07-29T02:18:42;17.50;99.90
7684;DHT22;3884;48.616;12.872;2023-07-29T02:21:09;17.60;99.90
7684;DHT22;3884;48.616;12.872;2023-07-29T02:23:36;17.60;99.90
7684;DHT22;3884;48.616;12.872;2023-07-29T02:26:04;17.60;99.90
7684;DHT22;3884;48.616;12.872;2023-07-29T02:28:31;17.60;99.90
7684;DHT22;3884;48.616;12.872;2023-07-29T02:31:21;17.50;99.90
7684;DHT22;3884;48.616;12.872;2023-07-29T02:33:49;17.60;99.90
7684;DHT22;3884;48.616;12.872;2023-07-29T02:36:16;17.60;99.90
7684;DHT22;3884;48.616;12.872;2023-07-29T02:38:44;17.60;99.90
7684;DHT22;3884;48.616;12.872;2023-07-29T02:41:11;17.50;99.90
7684;DHT22;3884;48.616;12.872;2023-07-29T02:43:38;17.50;99.90
7684;DHT22;3884;48.616;12.872;2023-07-29T02:46:07;17.50;99.90
7684;DHT22;3884;48.616;12.872;2023-07-29T02:48:35;17.40;99.90
7684;DHT22;3884;48.616;12.872;2023-07-29T02:51:02;17.50;99.90
7684;DHT22;3884;48.616;12.872;2023-07-29T02:53:29;17.50;99.90
7684;DHT22;3884;48.616;12.872;2023-07-29T02:55:56;17.50;99.90
7684;DHT22;3884;48.616;12.872;2023-07-29T02:58:23;17.50;99.90
7684;DHT22;3884;48.616;12.872;2023-07-29T03:00:52;17.50;99.90
7684;DHT22;3884;48.616;12.872;2023-07-29T03:03:19;17.50;99.90
7684;DHT22;3884;48.616;12.872;2023-07-29T03:05:47;17.60;99.90
7684;DHT22;3884;48.616;12.872;2023-07-29T03:08:14;17.50;99.90
7684;DHT22;3884;48.616;12.872;2023-07-29T03:10:41;17.30;99.90
7684;DHT22;3884;48.616;12.872;2023-07-29T03:13:08;17.30;99.90
7684;DHT22;3884;48.616;12.872;2023-07-29T03:15:35;17.20;99.90
7684;DHT22;3884;48.616;12.872;2023-07-29T03:18:03;17.20;99.90
7684;DHT22;3884;48.616;12.872;2023-07-29T03:20:30;17.20;99.90
7684;DHT22;3884;48.616;12.872;2023-07-29T03:22:58;17.20;99.90
7684;DHT22;3884;48.616;12.872;2023-07-29T03:25:25;17.10;99.90
7684;DHT22;3884;48.616;12.872;2023-07-29T03:27:52;17.00;99.90
7684;DHT22;3884;48.616;12.872;2023-07-29T03:30:20;16.90;99.90
7684;DHT22;3884;48.616;12.872;2023-07-29T03:32:48;16.90;99.90
7684;DHT22;3884;48.616;12.872;2023-07-29T03:35:16;16.70;99.90
7684;DHT22;3884;48.616;12.872;2023-07-29T03:37:43;16.70;99.90
7684;DHT22;3884;48.616;12.872;2023-07-29T03:40:11;16.70;99.90
7684;DHT22;3884;48.616;12.872;2023-07-29T03:42:38;16.70;99.90
7684;DHT22;3884;48.616;12.872;2023-07-29T03:45:06;16.70;99.90
7684;DHT22;3884;48.616;12.872;2023-07-29T03:47:33;16.60;99.90
7684;DHT22;3884;48.616;12.872;2023-07-29T03:50:01;16.60;99.90
7684;DHT22;3884;48.616;12.872;2023-07-29T03:52:28;16.60;99.90
7684;DHT22;3884;48.616;12.872;2023-07-29T03:54:55;16.60;99.90
7684;DHT22;3884;48.616;12.872;2023-07-29T03:57:24;16.70;99.90
7684;DHT22;3884;48.616;12.872;2023-07-29T03:59:54;16.60;99.90
7684;DHT22;3884;48.616;12.872;2023-07-29T04:02:21;16.60;99.90
7684;DHT22;3884;48.616;12.872;2023-07-29T04:04:48;16.60;99.90
7684;DHT22;3884;48.616;12.872;2023-07-29T04:07:16;16.60;99.90
7684;DHT22;3884;48.616;12.872;2023-07-29T04:09:43;16.60;99.90
7684;DHT22;3884;48.616;12.872;2023-07-29T04:12:11;16.50;99.90
7684;DHT22;3884;48.616;12.872;2023-07-29T04:14:39;16.40;99.90
7684;DHT22;3884;48.616;12.872;2023-07-29T04:17:07;16.40;99.90
7684;DHT22;3884;48.616;12.872;2023-07-29T04:19:34;16.30;99.90
7684;DHT22;3884;48.616;12.872;2023-07-29T04:22:01;16.40;99.90
7684;DHT22;3884;48.616;12.872;2023-07-29T04:24:28;16.50;99.90
7684;DHT22;3884;48.616;12.872;2023-07-29T04:26:55;16.40;99.90
7684;DHT22;3884;48.616;12.872;2023-07-29T04:29:22;16.40;99.90
7684;DHT22;3884;48.616;12.872;2023-07-29T04:31:54;16.50;99.90
7684;DHT22;3884;48.616;12.872;2023-07-29T04:34:21;16.40;99.90
7684;DHT22;3884;48.616;12.872;2023-07-29T04:36:48;16.30;99.90
7684;DHT22;3884;48.616;12.872;2023-07-29T04:39:15;16.30;99.90
7684;DHT22;3884;48.616;12.872;2023-07-29T04:41:43;16.40;99.90
7684;DHT22;3884;48.616;12.872;2023-07-29T04:44:10;16.40;99.90
7684;DHT22;3884;48.616;12.872;2023-07-29T04:46:37;16.30;99.90
7684;DHT22;3884;48.616;12.872;2023-07-29T04:49:05;16.40;99.90
7684;DHT22;3884;48.616;12.872;2023-07-29T04:51:32;16.40;99.90
7684;DHT22;3884;48.616;12.872;2023-07-29T04:53:59;16.50;99.90
7684;DHT22;3884;48.616;12.872;2023-07-29T04:56:26;16.60;99.90
7684;DHT22;3884;48.616;12.872;2023-07-29T04:58:53;16.50;99.90
7684;DHT22;3884;48.616;12.872;2023-07-29T05:01:20;16.50;99.90
7684;DHT22;3884;48.616;12.872;2023-07-29T05:03:47;16.60;99.90
7684;DHT22;3884;48.616;12.872;2023-07-29T05:06:15;16.60;99.90
7684;DHT22;3884;48.616;12.872;2023-07-29T05:08:42;16.70;99.90
7684;DHT22;3884;48.616;12.872;2023-07-29T05:11:09;16.80;99.90
7684;DHT22;3884;48.616;12.872;2023-07-29T05:13:36;16.90;99.90
7684;DHT22;3884;48.616;12.872;2023-07-29T05:16:04;17.00;99.90
7684;DHT22;3884;48.616;12.872;2023-07-29T05:18:30;17.10;99.90
7684;DHT22;3884;48.616;12.872;2023-07-29T05:20:57;17.30;99.90
7684;DHT22;3884;48.616;12.872;2023-07-29T05:23:27;17.40;99.90
7684;DHT22;3884;48.616;12.872;2023-07-29T05:25:54;17.50;99.90
7684;DHT22;3884;48.616;12.872;2023-07-29T05:28:21;17.60;99.90
7684;DHT22;3884;48.616;12.872;2023-07-29T05:30:47;17.60;99.90
7684;DHT22;3884;48.616;12.872;2023-07-29T05:33:14;17.60;99.90
7684;DHT22;3884;48.616;12.872;2023-07-29T05:35:42;17.70;99.90
7684;DHT22;3884;48.616;12.872;2023-07-29T05:38:09;17.80;99.90
7684;DHT22;3884;48.616;12.872;2023-07-29T05:40:37;17.90;99.90
7684;DHT22;3884;48.616;12.872;2023-07-29T05:43:04;17.90;99.90
7684;DHT22;3884;48.616;12.872;2023-07-29T05:45:31;18.00;99.90
7684;DHT22;3884;48.616;12.872;2023-07-29T05:47:57;18.10;99.90
7684;DHT22;3884;48.616;12.872;2023-07-29T05:50:24;18.20;99.90
7684;DHT22;3884;48.616;12.872;2023-07-29T05:52:52;18.30;99.90
7684;DHT22;3884;48.616;12.872;2023-07-29T05:55:19;18.30;99.90
7684;DHT22;3884;48.616;12.872;2023-07-29T05:57:47;18.40;99.90
7684;DHT22;3884;48.616;12.872;2023-07-29T06:00:14;18.40;99.90
7684;DHT22;3884;48.616;12.872;2023-07-29T06:02:41;18.50;99.90
7684;DHT22;3884;48.616;12.872;2023-07-29T06:05:12;18.40;99.90
7684;DHT22;3884;48.616;12.872;2023-07-29T06:07:39;18.30;99.90
7684;DHT22;3884;48.616;12.872;2023-07-29T06:10:10;18.40;99.90
7684;DHT22;3884;48.616;12.872;2023-07-29T06:12:37;18.50;99.90
7684;DHT22;3884;48.616;12.872;2023-07-29T06:15:08;18.60;99.90
7684;DHT22;3884;48.616;12.872;2023-07-29T06:17:35;18.70;99.90
7684;DHT22;3884;48.616;12.872;2023-07-29T06:20:02;18.70;99.90
7684;DHT22;3884;48.616;12.872;2023-07-29T06:22:30;18.70;99.90
7684;DHT22;3884;48.616;12.872;2023-07-29T06:24:57;18.80;99.90
7684;DHT22;3884;48.616;12.872;2023-07-29T06:27:27;18.90;99.90
7684;DHT22;3884;48.616;12.872;2023-07-29T06:29:53;18.90;99.90
7684;DHT22;3884;48.616;12.872;2023-07-29T06:32:22;19.00;99.90
7684;DHT22;3884;48.616;12.872;2023-07-29T06:34:49;19.00;99.90
7684;DHT22;3884;48.616;12.872;2023-07-29T06:37:17;19.10;99.90
7684;DHT22;3884;48.616;12.872;2023-07-29T06:39:44;19.10;99.90
7684;DHT22;3884;48.616;12.872;2023-07-29T06:42:11;19.30;99.90
7684;DHT22;3884;48.616;12.872;2023-07-29T06:44:38;19.40;99.90
7684;DHT22;3884;48.616;12.872;2023-07-29T06:47:05;19.50;99.90
7684;DHT22;3884;48.616;12.872;2023-07-29T06:49:33;19.60;99.90
7684;DHT22;3884;48.616;12.872;2023-07-29T06:52:01;19.70;99.90
7684;DHT22;3884;48.616;12.872;2023-07-29T06:54:27;19.90;99.90
7684;DHT22;3884;48.616;12.872;2023-07-29T06:56:55;20.10;99.90
7684;DHT22;3884;48.616;12.872;2023-07-29T06:59:22;20.10;99.90
7684;DHT22;3884;48.616;12.872;2023-07-29T07:01:50;20.30;99.90
7684;DHT22;3884;48.616;12.872;2023-07-29T07:04:16;20.40;99.90
7684;DHT22;3884;48.616;12.872;2023-07-29T07:06:45;20.40;99.90
7684;DHT22;3884;48.616;12.872;2023-07-29T07:09:11;20.40;99.90
7684;DHT22;3884;48.616;12.872;2023-07-29T07:11:38;20.60;99.90
7684;DHT22;3884;48.616;12.872;2023-07-29T07:14:05;20.70;99.90
7684;DHT22;3884;48.616;12.872;2023-07-29T07:16:32;20.90;99.90
7684;DHT22;3884;48.616;12.872;2023-07-29T07:19:01;20.80;99.90
7684;DHT22;3884;48.616;12.872;2023-07-29T07:21:27;20.80;99.90
7684;DHT22;3884;48.616;12.872;2023-07-29T07:23:55;20.90;99.90
7684;DHT22;3884;48.616;12.872;2023-07-29T07:26:22;21.10;53.50
7684;DHT22;3884;48.616;12.872;2023-07-29T07:28:49;21.40;1.00
7684;DHT22;3884;48.616;12.872;2023-07-29T07:31:17;21.40;99.90
7684;DHT22;3884;48.616;12.872;2023-07-29T07:33:44;21.50;16.20
7684;DHT22;3884;48.616;12.872;2023-07-29T07:36:11;21.60;1.00
7684;DHT22;3884;48.616;12.872;2023-07-29T07:38:38;21.60;43.90
7684;DHT22;3884;48.616;12.872;2023-07-29T07:41:06;21.40;1.00
7684;DHT22;3884;48.616;12.872;2023-07-29T07:43:33;21.40;99.90
7684;DHT22;3884;48.616;12.872;2023-07-29T07:46:01;21.40;1.00
7684;DHT22;3884;48.616;12.872;2023-07-29T07:48:28;21.30;1.00
7684;DHT22;3884;48.616;12.872;2023-07-29T07:50:54;21.50;1.00
7684;DHT22;3884;48.616;12.872;2023-07-29T07:53:21;21.50;1.00
7684;DHT22;3884;48.616;12.872;2023-07-29T07:55:48;21.80;1.00
7684;DHT22;3884;48.616;12.872;2023-07-29T07:58:17;22.00;99.90
7684;DHT22;3884;48.616;12.872;2023-07-29T08:00:44;22.00;1.00
7684;DHT22;3884;48.616;12.872;2023-07-29T08:03:11;21.90;1.00
7684;DHT22;3884;48.616;12.872;2023-07-29T08:05:38;21.80;1.00
7684;DHT22;3884;48.616;12.872;2023-07-29T08:08:05;21.90;1.00
7684;DHT22;3884;48.616;12.872;2023-07-29T08:10:32;22.00;1.00
7684;DHT22;3884;48.616;12.872;2023-07-29T08:12:59;22.00;1.00
7684;DHT22;3884;48.616;12.872;2023-07-29T08:15:28;22.10;99.90
7684;DHT22;3884;48.616;12.872;2023-07-29T08:17:54;22.00;99.90
7684;DHT22;3884;48.616;12.872;2023-07-29T08:20:21;21.80;99.90
7684;DHT22;3884;48.616;12.872;2023-07-29T08:22:48;21.70;1.00
7684;DHT22;3884;48.616;12.872;2023-07-29T08:25:15;21.50;1.00
7684;DHT22;3884;48.616;12.872;2023-07-29T08:27:42;21.30;1.00
7684;DHT22;3884;48.616;12.872;2023-07-29T08:30:10;21.00;1.00
7684;DHT22;3884;48.616;12.872;2023-07-29T08:32:38;20.60;26.50
7684;DHT22;3884;48.616;12.872;2023-07-29T08:35:05;20.50;80.10
7684;DHT22;3884;48.616;12.872;2023-07-29T08:37:32;20.40;99.90
7684;DHT22;3884;48.616;12.872;2023-07-29T08:39:59;20.30;99.90
7684;DHT22;3884;48.616;12.872;2023-07-29T08:42:31;20.30;99.90
7684;DHT22;3884;48.616;12.872;2023-07-29T08:45:05;20.20;99.90
7684;DHT22;3884;48.616;12.872;2023-07-29T08:47:33;20.00;99.90
7684;DHT22;3884;48.616;12.872;2023-07-29T08:50:01;19.90;99.90
7684;DHT22;3884;48.616;12.872;2023-07-29T08:52:29;19.90;99.90
7684;DHT22;3884;48.616;12.872;2023-07-29T08:54:57;19.80;99.90
7684;DHT22;3884;48.616;12.872;2023-07-29T08:57:24;19.60;99.90
7684;DHT22;3884;48.616;12.872;2023-07-29T08:59:52;19.60;99.90
7684;DHT22;3884;48.616;12.872;2023-07-29T09:02:19;19.30;99.90
7684;DHT22;3884;48.616;12.872;2023-07-29T09:04:46;19.20;99.90
7684;DHT22;3884;48.616;12.872;2023-07-29T09:07:14;19.20;99.90
7684;DHT22;3884;48.616;12.872;2023-07-29T09:09:41;19.30;99.90
7684;DHT22;3884;48.616;12.872;2023-07-29T09:12:08;19.40;99.90
7684;DHT22;3884;48.616;12.872;2023-07-29T09:14:36;19.50;99.90
7684;DHT22;3884;48.616;12.872;2023-07-29T09:17:07;19.60;99.90
7684;DHT22;3884;48.616;12.872;2023-07-29T09:19:33;19.80;99.90
7684;DHT22;3884;48.616;12.872;2023-07-29T09:22:00;19.90;99.90
7684;DHT22;3884;48.616;12.872;2023-07-29T09:24:29;20.00;99.90
7684;DHT22;3884;48.616;12.872;2023-07-29T09:26:58;20.00;99.90
7684;DHT22;3884;48.616;12.872;2023-07-29T09:29:28;20.00;99.90
7684;DHT22;3884;48.616;12.872;2023-07-29T09:32:18;20.00;99.90
7684;DHT22;3884;48.616;12.872;2023-07-29T09:34:46;20.00;99.90
7684;DHT22;3884;48.616;12.872;2023-07-29T09:37:16;19.90;99.90
7684;DHT22;3884;48.616;12.872;2023-07-29T09:39:47;19.90;99.90
7684;DHT22;3884;48.616;12.872;2023-07-29T09:42:17;19.90;99.90
7684;DHT22;3884;48.616;12.872;2023-07-29T09:44:45;19.80;99.90
7684;DHT22;3884;48.616;12.872;2023-07-29T09:47:19;19.80;99.90
7684;DHT22;3884;48.616;12.872;2023-07-29T09:49:46;19.80;99.90
7684;DHT22;3884;48.616;12.872;2023-07-29T09:52:15;19.90;99.90
7684;DHT22;3884;48.616;12.872;2023-07-29T09:54:42;20.00;99.90
7684;DHT22;3884;48.616;12.872;2023-07-29T09:57:12;19.80;99.90
7684;DHT22;3884;48.616;12.872;2023-07-29T09:59:40;20.00;99.90
7684;DHT22;3884;48.616;12.872;2023-07-29T10:02:14;20.20;99.90
7684;DHT22;3884;48.616;12.872;2023-07-29T10:04:42;20.40;99.90
7684;DHT22;3884;48.616;12.872;2023-07-29T10:07:09;20.60;99.90
7684;DHT22;3884;48.616;12.872;2023-07-29T10:09:37;20.70;99.90
7684;DHT22;3884;48.616;12.872;2023-07-29T10:12:06;20.70;99.90
7684;DHT22;3884;48.616;12.872;2023-07-29T10:14:35;20.80;99.90
7684;DHT22;3884;48.616;12.872;2023-07-29T10:17:05;20.80;99.90
7684;DHT22;3884;48.616;12.872;2023-07-29T10:19:32;20.70;99.90
7684;DHT22;3884;48.616;12.872;2023-07-29T10:22:02;20.80;99.90
7684;DHT22;3884;48.616;12.872;2023-07-29T10:24:30;21.00;99.90
7684;DHT22;3884;48.616;12.872;2023-07-29T10:26:59;21.20;99.90
7684;DHT22;3884;48.616;12.872;2023-07-29T10:29:30;21.50;99.90
7684;DHT22;3884;48.616;12.872;2023-07-29T10:32:01;21.80;1.00
7684;DHT22;3884;48.616;12.872;2023-07-29T10:34:29;21.90;99.90
7684;DHT22;3884;48.616;12.872;2023-07-29T10:36:57;22.20;99.90
7684;DHT22;3884;48.616;12.872;2023-07-29T10:39:25;22.30;99.90
7684;DHT22;3884;48.616;12.872;2023-07-29T10:41:56;22.40;99.90
7684;DHT22;3884;48.616;12.872;2023-07-29T10:44:45;22.40;99.90
7684;DHT22;3884;48.616;12.872;2023-07-29T10:47:17;22.60;85.20
7684;DHT22;3884;48.616;12.872;2023-07-29T10:49:45;22.60;1.00
7684;DHT22;3884;48.616;12.872;2023-07-29T10:52:13;22.70;60.50
7684;DHT22;3884;48.616;12.872;2023-07-29T10:54:45;22.90;1.00
7684;DHT22;3884;48.616;12.872;2023-07-29T10:57:16;23.20;1.00
7684;DHT22;3884;48.616;12.872;2023-07-29T10:59:55;23.40;99.90
7684;DHT22;3884;48.616;12.872;2023-07-29T11:02:29;23.40;99.90
7684;DHT22;3884;48.616;12.872;2023-07-29T11:04:56;23.20;1.00
7684;DHT22;3884;48.616;12.872;2023-07-29T11:07:26;23.20;99.90
7684;DHT22;3884;48.616;12.872;2023-07-29T11:09:56;23.00;99.90
7684;DHT22;3884;48.616;12.872;2023-07-29T11:12:37;23.20;1.00
7684;DHT22;3884;48.616;12.872;2023-07-29T11:15:12;23.00;1.00
7684;DHT22;3884;48.616;12.872;2023-07-29T11:17:42;23.00;1.00
7684;DHT22;3884;48.616;12.872;2023-07-29T11:20:10;23.20;99.90
7684;DHT22;3884;48.616;12.872;2023-07-29T11:22:38;23.30;1.00
7684;DHT22;3884;48.616;12.872;2023-07-29T11:25:07;23.40;1.00
7684;DHT22;3884;48.616;12.872;2023-07-29T11:27:34;23.40;1.00
7684;DHT22;3884;48.616;12.872;2023-07-29T11:30:02;23.40;99.90
7684;DHT22;3884;48.616;12.872;2023-07-29T11:32:31;23.30;1.00
7684;DHT22;3884;48.616;12.872;2023-07-29T11:35:03;23.10;62.60
7684;DHT22;3884;48.616;12.872;2023-07-29T11:37:32;23.00;1.00
7684;DHT22;3884;48.616;12.872;2023-07-29T11:39:59;22.80;1.00
7684;DHT22;3884;48.616;12.872;2023-07-29T11:42:26;22.70;1.00
7684;DHT22;3884;48.616;12.872;2023-07-29T11:44:56;22.60;1.00
7684;DHT22;3884;48.616;12.872;2023-07-29T11:47:24;22.50;1.00
7684;DHT22;3884;48.616;12.872;2023-07-29T11:49:51;22.40;1.00
7684;DHT22;3884;48.616;12.872;2023-07-29T11:52:20;22.20;99.90
7684;DHT22;3884;48.616;12.872;2023-07-29T11:54:48;22.10;1.00
7684;DHT22;3884;48.616;12.872;2023-07-29T11:57:16;21.90;94.80
7684;DHT22;3884;48.616;12.872;2023-07-29T11:59:45;21.80;99.90
7684;DHT22;3884;48.616;12.872;2023-07-29T12:02:14;21.70;1.00
7684;DHT22;3884;48.616;12.872;2023-07-29T12:04:43;21.60;1.00
7684;DHT22;3884;48.616;12.872;2023-07-29T12:07:12;21.30;99.90
7684;DHT22;3884;48.616;12.872;2023-07-29T12:09:42;21.30;99.90
7684;DHT22;3884;48.616;12.872;2023-07-29T12:12:09;21.20;99.90
7684;DHT22;3884;48.616;12.872;2023-07-29T12:14:36;21.30;99.90
7684;DHT22;3884;48.616;12.872;2023-07-29T12:17:05;21.30;99.90
7684;DHT22;3884;48.616;12.872;2023-07-29T12:19:33;21.20;99.90
7684;DHT22;3884;48.616;12.872;2023-07-29T12:22:01;21.10;99.90
7684;DHT22;3884;48.616;12.872;2023-07-29T12:24:29;21.10;99.90
7684;DHT22;3884;48.616;12.872;2023-07-29T12:26:58;21.00;99.90
7684;DHT22;3884;48.616;12.872;2023-07-29T12:29:26;20.70;99.90
7684;DHT22;3884;48.616;12.872;2023-07-29T12:31:57;20.60;99.90
7684;DHT22;3884;48.616;12.872;2023-07-29T12:34:26;20.50;99.90
7684;DHT22;3884;48.616;12.872;2023-07-29T12:36:53;20.50;99.90
7684;DHT22;3884;48.616;12.872;2023-07-29T12:39:22;20.70;99.90
7684;DHT22;3884;48.616;12.872;2023-07-29T12:41:51;20.60;99.90
7684;DHT22;3884;48.616;12.872;2023-07-29T12:44:19;20.60;99.90
7684;DHT22;3884;48.616;12.872;2023-07-29T12:46:46;20.60;99.90
7684;DHT22;3884;48.616;12.872;2023-07-29T12:49:13;20.90;99.90
7684;DHT22;3884;48.616;12.872;2023-07-29T12:51:42;21.10;99.90
7684;DHT22;3884;48.616;12.872;2023-07-29T12:54:09;21.20;99.90
7684;DHT22;3884;48.616;12.872;2023-07-29T12:56:36;21.40;99.90
7684;DHT22;3884;48.616;12.872;2023-07-29T12:59:04;21.70;99.90
7684;DHT22;3884;48.616;12.872;2023-07-29T13:01:33;22.00;99.90
7684;DHT22;3884;48.616;12.872;2023-07-29T13:03:59;22.40;99.90
7684;DHT22;3884;48.616;12.872;2023-07-29T13:06:26;22.50;99.90
7684;DHT22;3884;48.616;12.872;2023-07-29T13:08:53;22.60;99.90
7684;DHT22;3884;48.616;12.872;2023-07-29T13:11:20;22.80;99.90
7684;DHT22;3884;48.616;12.872;2023-07-29T13:13:47;23.00;99.90
7684;DHT22;3884;48.616;12.872;2023-07-29T13:16:14;23.30;47.80
7684;DHT22;3884;48.616;12.872;2023-07-29T13:18:43;23.20;17.20
7684;DHT22;3884;48.616;12.872;2023-07-29T13:21:10;23.50;99.90
7684;DHT22;3884;48.616;12.872;2023-07-29T13:23:37;23.50;1.00
7684;DHT22;3884;48.616;12.872;2023-07-29T13:26:04;23.70;44.60
7684;DHT22;3884;48.616;12.872;2023-07-29T13:28:30;23.90;1.00
7684;DHT22;3884;48.616;12.872;2023-07-29T13:30:57;24.00;42.90
7684;DHT22;3884;48.616;12.872;2023-07-29T13:33:24;24.20;99.90
7684;DHT22;3884;48.616;12.872;2023-07-29T13:35:52;24.10;99.90
7684;DHT22;3884;48.616;12.872;2023-07-29T13:38:19;24.10;99.90
7684;DHT22;3884;48.616;12.872;2023-07-29T13:40:46;24.20;1.00
7684;DHT22;3884;48.616;12.872;2023-07-29T13:43:16;24.20;1.00
7684;DHT22;3884;48.616;12.872;2023-07-29T13:45:43;24.10;99.90
7684;DHT22;3884;48.616;12.872;2023-07-29T13:48:10;24.40;98.00
7684;DHT22;3884;48.616;12.872;2023-07-29T13:50:37;24.70;99.90
7684;DHT22;3884;48.616;12.872;2023-07-29T13:53:05;24.80;99.90
7684;DHT22;3884;48.616;12.872;2023-07-29T13:55:32;24.70;1.00
7684;DHT22;3884;48.616;12.872;2023-07-29T13:57:59;24.50;99.90
7684;DHT22;3884;48.616;12.872;2023-07-29T14:00:26;24.40;99.90
7684;DHT22;3884;48.616;12.872;2023-07-29T14:02:52;24.20;49.00
7684;DHT22;3884;48.616;12.872;2023-07-29T14:05:19;24.10;1.00
7684;DHT22;3884;48.616;12.872;2023-07-29T14:07:46;24.00;1.00
7684;DHT22;3884;48.616;12.872;2023-07-29T14:10:15;24.00;99.90
7684;DHT22;3884;48.616;12.872;2023-07-29T14:12:41;23.90;1.00
7684;DHT22;3884;48.616;12.872;2023-07-29T14:15:08;24.10;1.00
7684;DHT22;3884;48.616;12.872;2023-07-29T14:17:35;24.20;1.00
7684;DHT22;3884;48.616;12.872;2023-07-29T14:20:02;24.30;69.10
7684;DHT22;3884;48.616;12.872;2023-07-29T14:22:30;24.20;99.90
7684;DHT22;3884;48.616;12.872;2023-07-29T14:24:57;24.50;99.90
7684;DHT22;3884;48.616;12.872;2023-07-29T14:27:25;24.60;99.90
7684;DHT22;3884;48.616;12.872;2023-07-29T14:29:52;24.70;99.90
7684;DHT22;3884;48.616;12.872;2023-07-29T14:32:19;24.60;29.70
7684;DHT22;3884;48.616;12.872;2023-07-29T14:34:46;24.40;1.00
7684;DHT22;3884;48.616;12.872;2023-07-29T14:37:12;24.50;1.00
7684;DHT22;3884;48.616;12.872;2023-07-29T14:39:39;24.60;99.90
7684;DHT22;3884;48.616;12.872;2023-07-29T14:42:06;24.80;99.90
7684;DHT22;3884;48.616;12.872;2023-07-29T14:44:34;24.80;99.90
7684;DHT22;3884;48.616;12.872;2023-07-29T14:47:01;24.90;99.90
7684;DHT22;3884;48.616;12.872;2023-07-29T14:49:28;24.70;99.90
7684;DHT22;3884;48.616;12.872;2023-07-29T14:51:55;24.60;99.90
7684;DHT22;3884;48.616;12.872;2023-07-29T14:54:22;24.70;1.00
7684;DHT22;3884;48.616;12.872;2023-07-29T14:56:49;24.60;1.00
7684;DHT22;3884;48.616;12.872;2023-07-29T14:59:16;24.50;1.00
7684;DHT22;3884;48.616;12.872;2023-07-29T15:01:44;24.50;69.20
7684;DHT22;3884;48.616;12.872;2023-07-29T15:04:11;24.50;99.90
7684;DHT22;3884;48.616;12.872;2023-07-29T15:06:37;24.40;99.90
7684;DHT22;3884;48.616;12.872;2023-07-29T15:09:05;24.50;99.90
7684;DHT22;3884;48.616;12.872;2023-07-29T15:11:32;24.40;99.90
7684;DHT22;3884;48.616;12.872;2023-07-29T15:13:59;24.50;1.00
7684;DHT22;3884;48.616;12.872;2023-07-29T15:16:29;24.40;1.00
7684;DHT22;3884;48.616;12.872;2023-07-29T15:18:57;24.40;99.90
7684;DHT22;3884;48.616;12.872;2023-07-29T15:21:24;24.30;99.90
7684;DHT22;3884;48.616;12.872;2023-07-29T15:23:51;24.30;99.90
7684;DHT22;3884;48.616;12.872;2023-07-29T15:26:18;24.40;1.00
7684;DHT22;3884;48.616;12.872;2023-07-29T15:28:45;24.40;99.90
7684;DHT22;3884;48.616;12.872;2023-07-29T15:31:13;24.40;1.00
7684;DHT22;3884;48.616;12.872;2023-07-29T15:33:40;24.40;99.90
7684;DHT22;3884;48.616;12.872;2023-07-29T15:36:08;24.30;99.90
7684;DHT22;3884;48.616;12.872;2023-07-29T15:38:35;24.20;84.00
7684;DHT22;3884;48.616;12.872;2023-07-29T15:41:02;24.20;1.00
7684;DHT22;3884;48.616;12.872;2023-07-29T15:43:29;24.20;1.00
7684;DHT22;3884;48.616;12.872;2023-07-29T15:45:56;24.20;99.90
7684;DHT22;3884;48.616;12.872;2023-07-29T15:48:23;24.20;1.00
7684;DHT22;3884;48.616;12.872;2023-07-29T15:50:50;24.20;1.00
7684;DHT22;3884;48.616;12.872;2023-07-29T15:53:18;24.20;1.00
7684;DHT22;3884;48.616;12.872;2023-07-29T15:55:45;24.20;99.90
7684;DHT22;3884;48.616;12.872;2023-07-29T15:58:12;24.10;1.00